createdAt,value
2023-02-11T00:01:30.154Z,75.16
2023-02-11T00:03:58.447Z,75.14
2023-02-11T00:06:28.114Z,75.59
2023-02-11T00:08:55.850Z,75.17
2023-02-11T00:11:26.511Z,75.37
2023-02-11T00:13:53.594Z,75.64
2023-02-11T00:16:21.820Z,75.33
2023-02-11T00:18:50.405Z,75.33
2023-02-11T00:21:20.326Z,75.74
2023-02-11T00:23:48.229Z,75.62
2023-02-11T00:26:21.389Z,75.85
2023-02-11T00:28:50.343Z,75.50
2023-02-11T00:31:19.020Z,75.73
2023-02-11T00:33:46.064Z,75.78
2023-02-11T00:36:18.665Z,75.58
2023-02-11T00:38:47.230Z,75.90
2023-02-11T00:41:14.922Z,75.82
2023-02-11T00:43:41.891Z,75.59
2023-02-11T00:46:08.951Z,75.91
2023-02-11T00:48:36.127Z,75.78
2023-02-11T00:51:04.402Z,75.69
2023-02-11T00:53:31.744Z,75.80
2023-02-11T00:55:58.445Z,76.19
2023-02-11T00:58:25.399Z,75.98
2023-02-11T01:00:53.444Z,76.18
2023-02-11T01:03:20.165Z,76.41
2023-02-11T01:05:46.949Z,76.15
2023-02-11T01:08:13.884Z,76.29
2023-02-11T01:10:40.753Z,76.37
2023-02-11T01:13:07.734Z,76.64
2023-02-11T01:15:34.597Z,76.36
2023-02-11T01:18:01.614Z,76.37
2023-02-11T01:20:29.798Z,76.67
2023-02-11T01:22:56.535Z,76.42
2023-02-11T01:25:23.285Z,76.71
2023-02-11T01:27:50.065Z,76.59
2023-02-11T01:30:16.878Z,76.86
2023-02-11T01:32:43.605Z,76.59
2023-02-11T01:35:10.482Z,76.78
2023-02-11T01:37:37.124Z,77.06
2023-02-11T01:40:06.304Z,77.28
2023-02-11T01:42:33.170Z,76.95
2023-02-11T01:45:01.924Z,77.11
2023-02-11T01:47:28.565Z,77.19
2023-02-11T01:50:01.985Z,77.43
2023-02-11T01:52:40.688Z,77.17
2023-02-11T01:55:31.562Z,77.21
2023-02-11T01:58:03.926Z,77.70
2023-02-11T02:00:33.502Z,77.54
2023-02-11T02:03:11.523Z,77.76
2023-02-11T02:05:49.153Z,77.64
2023-02-11T02:08:36.428Z,78.00
2023-02-11T02:11:03.954Z,77.85
2023-02-11T02:13:33.605Z,77.99
2023-02-11T02:16:09.322Z,77.79
2023-02-11T02:19:14.465Z,78.20
2023-02-11T02:21:50.093Z,77.85
2023-02-11T02:24:57.849Z,78.26
2023-02-11T02:28:00.881Z,78.15
2023-02-11T02:30:42.885Z,78.24
2023-02-11T02:33:40.928Z,78.14
2023-02-11T02:36:43.062Z,78.05
2023-02-11T02:39:21.396Z,78.86
2023-02-11T02:41:50.978Z,78.67
2023-02-11T02:44:18.947Z,78.43
2023-02-11T02:46:46.138Z,77.99
2023-02-11T02:49:14.991Z,78.27
2023-02-11T02:52:15.879Z,78.74
2023-02-11T02:54:56.540Z,78.76
2023-02-11T02:57:33.544Z,78.58
2023-02-11T03:00:32.849Z,78.62
2023-02-11T03:03:31.309Z,79.03
2023-02-11T03:06:17.750Z,78.86
2023-02-11T03:08:52.237Z,78.80
2023-02-11T03:11:20.376Z,79.07
2023-02-11T03:13:49.571Z,79.29
2023-02-11T03:16:25.053Z,79.21
2023-02-11T03:19:05.819Z,79.34
2023-02-11T03:21:36.157Z,79.35
2023-02-11T03:24:07.801Z,79.17
2023-02-11T03:26:49.842Z,79.67
2023-02-11T03:29:43.291Z,79.50
2023-02-11T03:32:20.082Z,79.69
2023-02-11T03:34:57.639Z,79.64
2023-02-11T03:37:33.452Z,79.71
2023-02-11T03:40:08.221Z,79.77
2023-02-11T03:42:42.760Z,79.90
2023-02-11T03:45:14.442Z,79.60
2023-02-11T03:47:47.635Z,79.86
2023-02-11T03:50:16.628Z,79.77
2023-02-11T03:52:45.315Z,79.60
2023-02-11T03:55:16.203Z,79.84
2023-02-11T03:57:43.124Z,80.05
2023-02-11T04:00:11.257Z,79.82
2023-02-11T04:02:39.536Z,79.89
2023-02-11T04:05:08.051Z,79.87
2023-02-11T04:07:34.994Z,80.02
2023-02-11T04:10:01.831Z,80.30
2023-02-11T04:12:28.662Z,80.32
2023-02-11T04:14:55.316Z,80.04
2023-02-11T04:17:22.147Z,80.17
2023-02-11T04:19:48.825Z,80.35
2023-02-11T04:22:15.644Z,80.42
2023-02-11T04:24:44.121Z,80.30
2023-02-11T04:27:11.009Z,80.04
2023-02-11T04:29:37.904Z,80.38
2023-02-11T04:32:04.862Z,80.49
2023-02-11T04:34:32.237Z,80.26
2023-02-11T04:36:58.845Z,80.34
2023-02-11T04:39:25.651Z,80.53
2023-02-11T04:41:52.488Z,80.53
2023-02-11T04:44:19.202Z,80.32
2023-02-11T04:46:46.100Z,80.72
2023-02-11T04:49:14.629Z,80.76
2023-02-11T04:51:41.415Z,80.32
2023-02-11T04:54:08.526Z,80.53
2023-02-11T04:56:35.227Z,80.35
2023-02-11T04:59:02.886Z,80.93
2023-02-11T05:01:29.955Z,80.68
2023-02-11T05:03:56.905Z,80.44
2023-02-11T05:06:23.892Z,81.01
2023-02-11T05:08:50.643Z,80.98
2023-02-11T05:11:23.615Z,80.91
2023-02-11T05:13:50.507Z,80.71
2023-02-11T05:16:19.121Z,80.65
2023-02-11T05:18:45.814Z,80.79
2023-02-11T05:21:15.148Z,80.58
2023-02-11T05:23:42.728Z,80.69
2023-02-11T05:26:10.240Z,81.17
2023-02-11T05:28:37.220Z,81.13
2023-02-11T05:31:05.019Z,80.92
2023-02-11T05:33:32.233Z,81.22
2023-02-11T05:36:08.628Z,81.09
2023-02-11T05:38:35.938Z,80.94
2023-02-11T05:41:03.286Z,81.33
2023-02-11T05:43:30.263Z,80.75
2023-02-11T05:45:57.329Z,80.85
2023-02-11T05:48:24.135Z,81.18
2023-02-11T05:50:50.897Z,81.23
2023-02-11T05:53:17.679Z,81.19
2023-02-11T05:55:44.663Z,81.14
2023-02-11T05:58:11.666Z,80.99
2023-02-11T06:00:38.505Z,81.10
2023-02-11T06:03:05.734Z,81.10
2023-02-11T06:05:32.701Z,80.96
2023-02-11T06:07:59.841Z,80.98
2023-02-11T06:10:27.029Z,81.47
2023-02-11T06:12:53.854Z,81.38
2023-02-11T06:15:20.603Z,81.36
2023-02-11T06:17:47.349Z,81.05
2023-02-11T06:20:14.316Z,81.01
2023-02-11T06:22:40.953Z,81.40
2023-02-11T06:25:07.903Z,81.55
2023-02-11T07:17:05.681Z,82.17
2023-02-11T07:19:32.926Z,81.69
2023-02-11T07:21:59.727Z,82.00
2023-02-11T07:24:26.476Z,81.94
2023-02-11T07:26:54.178Z,82.14
2023-02-11T07:29:20.825Z,81.87
2023-02-11T07:31:47.756Z,82.05
2023-02-11T07:34:14.633Z,81.75
2023-02-11T07:36:43.721Z,82.26
2023-02-11T07:39:10.817Z,82.39
2023-02-11T07:41:38.302Z,81.82
2023-02-11T07:44:05.267Z,81.94
2023-02-11T07:46:32.474Z,82.02
2023-02-11T07:48:59.306Z,82.18
2023-02-11T07:51:30.962Z,82.23
2023-02-11T07:53:59.985Z,82.15
2023-02-11T07:56:27.500Z,82.25
2023-02-11T07:58:55.464Z,82.00
2023-02-11T08:01:28.427Z,82.16
2023-02-11T08:03:59.919Z,82.31
2023-02-11T08:06:29.482Z,82.24
2023-02-11T08:08:56.324Z,82.01
2023-02-11T08:11:26.354Z,81.98
2023-02-11T08:13:55.476Z,81.91
2023-02-11T08:16:25.124Z,81.79
2023-02-11T08:18:53.637Z,81.81
2023-02-11T08:21:21.042Z,81.89
2023-02-11T08:23:49.475Z,81.91
2023-02-11T08:26:21.536Z,81.84
2023-02-11T08:28:49.918Z,81.93
2023-02-11T08:31:23.274Z,81.93
2023-02-11T08:33:49.997Z,82.37
2023-02-11T08:36:20.207Z,82.38
2023-02-11T08:38:47.880Z,82.32
2023-02-11T08:41:15.760Z,82.02
2023-02-11T08:43:43.447Z,81.75
2023-02-11T08:46:14.350Z,82.19
2023-02-11T08:48:41.174Z,81.86
2023-02-11T08:51:10.435Z,81.77
2023-02-11T08:53:37.604Z,81.80
2023-02-11T08:56:05.422Z,82.12
2023-02-11T08:58:32.530Z,82.07
2023-02-11T09:00:59.485Z,81.94
2023-02-11T09:03:26.641Z,82.08
2023-02-11T09:05:53.956Z,81.73
2023-02-11T09:08:21.440Z,81.94
2023-02-11T09:10:48.905Z,81.47
2023-02-11T09:13:16.931Z,81.66
2023-02-11T09:15:47.058Z,81.41
2023-02-11T09:18:14.167Z,81.79
2023-02-11T09:20:41.043Z,81.67
2023-02-11T09:23:07.934Z,81.26
2023-02-11T09:25:34.688Z,81.35
2023-02-11T09:28:01.488Z,81.48
2023-02-11T09:30:28.874Z,81.16
2023-02-11T09:32:55.738Z,80.79
2023-02-11T09:35:22.525Z,80.83
2023-02-11T09:37:49.500Z,80.99
2023-02-11T09:40:16.903Z,80.89
2023-02-11T09:42:46.810Z,80.88
2023-02-11T09:45:26.663Z,80.67
2023-02-11T09:48:00.629Z,80.73
2023-02-11T09:50:35.169Z,80.76
2023-02-11T09:53:06.789Z,80.81
2023-02-11T09:55:39.579Z,80.79
2023-02-11T09:58:16.456Z,80.89
2023-02-11T10:00:48.942Z,80.59
2023-02-11T10:03:21.425Z,80.51
2023-02-11T10:06:16.327Z,80.25
2023-02-11T10:09:08.784Z,80.42
2023-02-11T10:11:35.761Z,79.75
2023-02-11T10:14:19.132Z,79.96
2023-02-11T10:16:56.417Z,79.86
2023-02-11T10:19:46.258Z,79.53
2023-02-11T10:22:34.366Z,79.47
2023-02-11T10:25:17.803Z,79.53
2023-02-11T10:27:45.218Z,79.59
2023-02-11T10:30:37.623Z,79.46
2023-02-11T10:33:15.627Z,79.46
2023-02-11T10:35:44.002Z,79.11
2023-02-11T10:38:11.964Z,79.66
2023-02-11T10:40:38.976Z,79.14
2023-02-11T10:43:12.250Z,79.06
2023-02-11T10:45:46.431Z,78.89
2023-02-11T10:48:38.614Z,79.15
2023-02-11T10:51:09.229Z,78.90
2023-02-11T10:53:35.917Z,78.54
2023-02-11T10:56:06.197Z,78.95
2023-02-11T10:58:46.551Z,78.86
2023-02-11T11:01:23.964Z,78.57
2023-02-11T11:03:53.210Z,78.62
2023-02-11T11:06:33.694Z,78.30
2023-02-11T11:09:01.315Z,78.38
2023-02-11T11:11:28.430Z,77.97
2023-02-11T11:13:58.329Z,77.89
2023-02-11T11:16:32.561Z,77.75
2023-02-11T11:19:08.575Z,77.83
2023-02-11T11:21:47.744Z,77.39
2023-02-11T11:24:26.874Z,77.50
2023-02-11T11:26:59.631Z,77.14
2023-02-11T11:29:47.111Z,76.96
2023-02-11T11:32:22.350Z,76.99
2023-02-11T11:34:54.048Z,77.18
2023-02-11T11:37:28.838Z,77.00
2023-02-11T11:40:08.872Z,76.59
2023-02-11T11:42:38.136Z,76.73
2023-02-11T11:45:26.572Z,76.50
2023-02-11T11:47:58.480Z,76.41
2023-02-11T11:50:33.340Z,76.16
2023-02-11T11:53:05.391Z,76.39
2023-02-11T11:56:02.224Z,76.21
2023-02-11T11:58:31.630Z,75.66
2023-02-11T12:01:16.864Z,75.85
2023-02-11T12:04:17.936Z,75.55
2023-02-11T12:07:06.449Z,75.83
2023-02-11T12:09:45.106Z,76.12
2023-02-11T12:12:23.706Z,75.49
2023-02-11T12:15:17.766Z,75.31
2023-02-11T12:18:06.112Z,75.40
2023-02-11T12:20:51.725Z,74.92
2023-02-11T12:23:49.670Z,75.41
2023-02-11T12:26:22.624Z,75.36
2023-02-11T12:28:55.333Z,74.78
2023-02-11T12:31:35.753Z,74.67
2023-02-11T12:34:28.725Z,75.00
2023-02-11T12:37:07.539Z,75.13
2023-02-11T12:39:45.561Z,75.04
2023-02-11T12:42:49.748Z,74.98
2023-02-11T12:45:22.909Z,74.53
2023-02-11T12:48:13.230Z,74.01
2023-02-11T12:51:05.209Z,74.09
2023-02-11T12:53:50.003Z,74.11
2023-02-11T12:56:16.687Z,74.10
2023-02-11T12:58:46.862Z,74.11
2023-02-11T13:01:23.672Z,74.22
2023-02-11T13:03:57.072Z,73.98
2023-02-11T13:06:37.366Z,73.94
2023-02-11T13:09:10.081Z,73.50
2023-02-11T13:11:52.185Z,73.75
2023-02-11T13:14:31.523Z,73.36
2023-02-11T13:16:59.354Z,73.74
2023-02-11T13:19:29.151Z,73.09
2023-02-11T13:22:20.481Z,73.08
2023-02-11T13:25:03.902Z,72.77
2023-02-11T13:27:51.381Z,72.80
2023-02-11T13:30:41.046Z,72.84
2023-02-11T13:33:21.440Z,72.68
2023-02-11T13:36:09.719Z,72.83
2023-02-11T13:38:37.707Z,72.75
2023-02-11T13:41:18.176Z,72.64
2023-02-11T13:43:56.781Z,72.41
2023-02-11T13:46:23.860Z,72.36
2023-02-11T13:48:53.117Z,72.39
2023-02-11T13:51:42.290Z,72.68
2023-02-11T13:54:19.842Z,72.48
2023-02-11T13:57:15.596Z,72.47
2023-02-11T13:59:42.217Z,72.74
2023-02-11T14:02:51.044Z,72.56
2023-02-11T14:05:49.236Z,72.63
2023-02-11T14:08:43.067Z,72.83
2023-02-11T14:11:21.845Z,73.09
2023-02-11T14:13:48.702Z,73.07
2023-02-11T14:16:36.759Z,72.50
2023-02-11T14:19:06.562Z,72.67
2023-02-11T14:21:37.377Z,72.54
2023-02-11T14:24:07.127Z,72.45
2023-02-11T14:26:52.589Z,72.65
2023-02-11T14:29:31.579Z,72.54
2023-02-11T14:32:18.825Z,72.74
2023-02-11T14:34:54.388Z,72.57
2023-02-11T14:37:40.148Z,72.99
2023-02-11T14:40:29.426Z,72.98
2023-02-11T14:43:00.793Z,72.92
2023-02-11T14:45:29.234Z,72.57
2023-02-11T14:48:19.117Z,73.07
2023-02-11T14:50:50.530Z,73.09
2023-02-11T14:53:21.491Z,72.89
2023-02-11T14:55:53.941Z,73.19
2023-02-11T14:58:30.077Z,72.80
2023-02-11T15:01:02.763Z,72.86
2023-02-11T15:03:41.249Z,72.91
2023-02-11T15:06:18.458Z,73.33
2023-02-11T15:08:49.243Z,73.06
2023-02-11T15:11:19.813Z,73.11
2023-02-11T15:13:49.682Z,72.96
2023-02-11T15:16:21.042Z,72.65
2023-02-11T15:18:58.132Z,72.95
2023-02-11T15:21:30.053Z,73.21
2023-02-11T15:24:23.960Z,73.42
2023-02-11T15:27:12.936Z,73.30
2023-02-11T15:29:42.907Z,72.97
2023-02-11T15:32:09.649Z,73.32
2023-02-11T15:34:37.387Z,72.93
2023-02-11T15:37:04.678Z,73.30
2023-02-11T15:39:36.820Z,73.26
2023-02-11T15:42:24.808Z,72.79
2023-02-11T15:45:11.874Z,73.26
2023-02-11T15:47:40.715Z,73.06
2023-02-11T15:50:19.468Z,72.81
2023-02-11T15:52:48.186Z,72.88
2023-02-11T15:55:17.009Z,73.20
2023-02-11T15:57:49.319Z,73.21
2023-02-11T16:00:21.588Z,73.26
2023-02-11T16:02:51.012Z,72.82
2023-02-11T16:05:36.558Z,73.10
2023-02-11T16:08:24.778Z,72.78
2023-02-11T16:11:32.114Z,72.85
2023-02-11T16:14:00.892Z,72.99
2023-02-11T16:16:31.186Z,73.55
2023-02-11T16:19:06.065Z,73.44
2023-02-11T16:21:42.561Z,73.01
2023-02-11T16:24:38.411Z,73.24
2023-02-11T16:27:22.261Z,73.37
2023-02-11T16:29:50.747Z,73.35
2023-02-11T16:32:20.498Z,73.49
2023-02-11T16:34:47.700Z,73.64
2023-02-11T16:37:14.866Z,73.71
2023-02-11T16:39:42.046Z,73.90
2023-02-11T16:42:12.628Z,73.29
2023-02-11T16:44:39.207Z,73.54
2023-02-11T16:47:24.250Z,73.73
2023-02-11T16:49:51.304Z,73.58
2023-02-11T16:52:18.823Z,73.66
2023-02-11T16:54:45.717Z,73.78
2023-02-11T16:57:16.850Z,73.78
2023-02-11T16:59:44.085Z,73.85
2023-02-11T17:02:16.969Z,73.52
2023-02-11T17:04:44.230Z,73.91
2023-02-11T17:07:11.171Z,73.72
2023-02-11T17:09:38.011Z,74.09
2023-02-11T17:12:05.049Z,74.19
2023-02-11T17:14:32.022Z,73.54
2023-02-11T17:16:58.831Z,73.78
2023-02-11T17:19:25.946Z,74.04
2023-02-11T17:21:52.838Z,74.28
2023-02-11T17:24:21.500Z,74.34
2023-02-11T17:26:49.468Z,74.16
2023-02-11T17:29:21.436Z,74.40
2023-02-11T17:31:48.365Z,74.11
2023-02-11T17:34:16.469Z,74.22
2023-02-11T17:36:43.482Z,74.25
2023-02-11T17:39:10.586Z,74.34
2023-02-11T17:41:38.923Z,74.51
2023-02-11T17:44:06.257Z,74.45
2023-02-11T17:46:34.918Z,74.50
2023-02-11T17:49:02.861Z,74.55
2023-02-11T17:51:33.034Z,74.96
2023-02-11T17:54:05.969Z,74.93
2023-02-11T17:56:34.002Z,74.65
2023-02-11T17:59:02.504Z,74.98
2023-02-11T18:01:31.579Z,74.63
2023-02-11T18:03:58.424Z,74.58
2023-02-11T18:06:25.604Z,74.62
2023-02-11T18:08:52.612Z,74.91
2023-02-11T18:11:21.548Z,74.84
2023-02-11T18:13:54.579Z,74.63
2023-02-11T18:16:23.131Z,74.83
2023-02-11T18:18:50.382Z,74.52
2023-02-11T18:21:20.081Z,75.05
2023-02-11T18:23:47.373Z,74.83
2023-02-11T18:26:16.781Z,74.94
2023-02-11T18:28:45.944Z,74.79
2023-02-11T18:31:14.539Z,75.26
2023-02-11T18:33:42.369Z,74.97
2023-02-11T18:36:12.618Z,75.22
2023-02-11T18:38:40.091Z,75.17
2023-02-11T18:41:07.547Z,75.14
2023-02-11T18:43:37.547Z,75.47
2023-02-11T18:46:09.939Z,75.43
2023-02-11T18:48:37.610Z,75.52
2023-02-11T18:51:15.299Z,75.17
2023-02-11T18:53:43.422Z,75.52
2023-02-11T18:56:20.624Z,75.85
2023-02-11T18:58:48.970Z,75.45
2023-02-11T19:01:25.843Z,75.83
2023-02-11T19:03:54.095Z,75.71
2023-02-11T19:06:27.529Z,75.89
2023-02-11T19:08:59.010Z,75.76
2023-02-11T19:11:46.846Z,76.08
2023-02-11T19:14:20.931Z,75.83
2023-02-11T19:16:50.212Z,76.29
2023-02-11T19:19:17.933Z,75.71
2023-02-11T19:21:46.294Z,75.87
2023-02-11T19:24:20.197Z,75.76
2023-02-11T19:26:49.450Z,75.89
2023-02-11T19:29:16.477Z,75.93
2023-02-11T19:31:44.232Z,76.07
2023-02-11T19:34:14.102Z,76.13
2023-02-11T19:36:41.560Z,76.11
2023-02-11T19:39:09.186Z,76.18
2023-02-11T19:41:36.786Z,76.39
2023-02-11T19:44:04.941Z,76.14
2023-02-11T19:46:36.111Z,76.26
2023-02-11T19:49:04.199Z,76.18
2023-02-11T19:51:33.922Z,75.95
2023-02-11T19:54:01.018Z,76.04
2023-02-11T19:56:28.689Z,76.42
2023-02-11T19:58:55.767Z,76.16
2023-02-11T20:01:25.105Z,76.44
2023-02-11T20:03:57.266Z,76.39
2023-02-11T20:06:29.961Z,76.35
2023-02-11T20:09:03.037Z,76.67
2023-02-11T20:11:31.758Z,76.82
2023-02-11T20:13:59.337Z,76.55
2023-02-11T20:16:46.278Z,76.76
2023-02-11T20:19:18.337Z,76.93
2023-02-11T20:21:47.779Z,76.61
2023-02-11T20:24:16.409Z,77.03
2023-02-11T20:26:43.759Z,76.68
2023-02-11T20:29:10.492Z,76.69
2023-02-11T20:31:37.943Z,76.96
2023-02-11T20:34:05.139Z,76.88
2023-02-11T20:36:35.593Z,77.40
2023-02-11T20:39:03.580Z,76.99
2023-02-11T20:41:34.553Z,76.69
2023-02-11T20:44:04.513Z,76.96
2023-02-11T20:46:33.166Z,77.07
2023-02-11T20:49:01.501Z,76.84
2023-02-11T20:51:35.356Z,77.20
2023-02-11T20:54:02.644Z,77.12
2023-02-11T20:56:32.798Z,77.11
2023-02-11T20:59:02.179Z,76.85
2023-02-11T21:01:33.353Z,77.33
2023-02-11T21:04:06.338Z,76.87
2023-02-11T21:06:36.864Z,76.93
2023-02-11T21:09:04.597Z,77.09
2023-02-11T21:11:31.729Z,77.14
2023-02-11T21:13:58.934Z,76.85
2023-02-11T21:16:25.990Z,77.21
2023-02-11T21:18:52.834Z,77.33
2023-02-11T21:21:20.159Z,77.42
2023-02-11T21:23:47.404Z,77.20
2023-02-11T21:26:15.729Z,77.14
2023-02-11T21:28:42.875Z,77.27
2023-02-11T21:31:10.224Z,77.42
2023-02-11T21:33:37.021Z,77.58
2023-02-11T21:36:04.942Z,77.35
2023-02-11T21:38:32.758Z,77.48
2023-02-11T21:41:04.445Z,77.57
2023-02-11T21:43:31.993Z,77.26
2023-02-11T21:45:59.216Z,77.29
2023-02-11T21:48:26.748Z,77.74
2023-02-11T21:50:54.200Z,77.40
2023-02-11T21:53:21.094Z,77.94
2023-02-11T21:55:47.853Z,78.00
2023-02-11T21:58:14.939Z,77.91
2023-02-11T22:00:41.747Z,77.93
2023-02-11T22:03:08.602Z,77.77
2023-02-11T22:05:35.451Z,77.84
2023-02-11T22:08:02.195Z,78.16
2023-02-11T22:10:28.889Z,78.26
2023-02-11T22:12:55.857Z,78.00
2023-02-11T22:15:22.784Z,78.08
2023-02-11T22:17:49.632Z,78.07
2023-02-11T22:20:17.018Z,78.03
2023-02-11T22:22:43.833Z,78.10
2023-02-11T22:25:10.552Z,78.15
2023-02-11T22:27:37.638Z,78.42
2023-02-11T22:30:04.884Z,78.47
2023-02-11T22:32:31.716Z,78.32
2023-02-11T22:34:58.461Z,78.54
2023-02-11T22:37:25.401Z,78.50
2023-02-11T22:39:52.028Z,78.58
2023-02-11T22:42:18.923Z,78.51
2023-02-11T22:44:45.962Z,78.68
2023-02-11T22:47:13.222Z,78.49
2023-02-11T22:49:41.530Z,78.80
2023-02-11T22:52:08.425Z,78.47
2023-02-11T22:54:36.377Z,78.60
2023-02-11T22:57:03.317Z,79.00
2023-02-11T22:59:30.237Z,78.95
2023-02-11T23:01:56.986Z,78.73
2023-02-11T23:04:23.740Z,78.83
2023-02-11T23:06:50.517Z,78.81
2023-02-11T23:09:17.309Z,78.76
2023-02-11T23:11:44.357Z,78.88
2023-02-11T23:14:12.306Z,78.77
2023-02-11T23:16:39.452Z,79.14
2023-02-11T23:19:09.397Z,79.09
2023-02-11T23:21:38.492Z,79.11
2023-02-11T23:24:09.040Z,78.97
2023-02-11T23:26:37.492Z,78.82
2023-02-11T23:29:04.268Z,78.75
2023-02-11T23:31:34.763Z,79.10
2023-02-11T23:34:01.762Z,78.88
2023-02-11T23:36:29.097Z,79.31
2023-02-11T23:38:55.870Z,78.91
2023-02-11T23:41:23.811Z,78.82
2023-02-11T23:43:55.035Z,79.24
2023-02-11T23:46:23.440Z,78.80
2023-02-11T23:48:51.414Z,79.02
2023-02-11T23:51:19.360Z,79.17
2023-02-11T23:53:46.552Z,79.28
2023-02-11T23:56:17.172Z,79.35
2023-02-11T23:58:44.847Z,79.24
